Time;durP1;ratioP1;P1;durP2;ratioP2;P2;SDS_P1;SDS_P2;PMS_P1;PMS_P2;Temp;Humidity;BMP_temperature;BMP_pressure;BME280_temperature;BME280_humidity;BME280_pressure;Samples;Min_cycle;Max_cycle;Signal;HPM_P1;HPM_P2
2023/06/14 00:01:45;;;;;;;12.30;7.38;;;435.30;2355.20;;;;;;5036068;28;20038;-85
2023/06/14 00:04:12;;;;;;;12.88;7.82;;;435.30;2355.20;;;;;;5051952;28;20119;-85
2023/06/14 00:06:38;;;;;;;14.02;7.10;;;435.40;2355.20;;;;;;5034750;28;20229;-84
2023/06/14 00:09:05;;;;;;;10.30;6.97;;;435.50;2355.20;;;;;;5035593;28;20041;-83
2023/06/14 00:11:34;;;;;;;11.82;8.05;;;435.60;2355.20;;;;;;5034731;28;20119;-83
2023/06/14 00:14:00;;;;;;;11.63;7.50;;;435.60;2355.20;;;;;;5035317;28;20362;-83
2023/06/14 00:16:25;;;;;;;13.10;7.57;;;435.50;2355.20;;;;;;5036258;28;20060;-84
2023/06/14 00:18:51;;;;;;;12.13;8.18;;;435.50;2355.20;;;;;;5034606;28;20036;-84
2023/06/14 00:21:17;;;;;;;14.20;7.50;;;435.30;2355.20;;;;;;5036026;28;20112;-84
2023/06/14 00:23:43;;;;;;;14.10;8.40;;;410.40;2355.20;;;;;;5039881;28;20029;-84
2023/06/14 00:26:09;;;;;;;16.20;7.93;;;435.20;2355.20;;;;;;5047527;28;20025;-82
2023/06/14 00:28:35;;;;;;;18.30;7.57;;;435.30;2355.20;;;;;;5046981;28;20033;-83
2023/06/14 00:31:01;;;;;;;13.85;8.27;;;435.30;2355.20;;;;;;5040543;28;20075;-85
2023/06/14 00:33:26;;;;;;;12.25;7.75;;;435.40;2355.20;;;;;;5035664;28;20033;-84
2023/06/14 00:35:55;;;;;;;12.73;7.75;;;435.40;2355.20;;;;;;5057054;28;20040;-83
2023/06/14 00:38:21;;;;;;;14.70;7.70;;;435.40;2355.20;;;;;;5042950;28;20143;-85
2023/06/14 00:40:46;;;;;;;13.73;7.68;;;435.40;2355.20;;;;;;5044414;28;20033;-82
2023/06/14 00:43:12;;;;;;;15.43;8.20;;;435.30;2355.20;;;;;;5069551;28;20052;-84
2023/06/14 00:45:38;;;;;;;11.43;7.75;;;435.30;2355.20;;;;;;5035234;28;20076;-84
2023/06/14 00:48:06;;;;;;;13.25;7.28;;;435.30;2355.20;;;;;;5034143;28;20030;-84
2023/06/14 00:50:32;;;;;;;13.07;7.18;;;435.30;2355.20;;;;;;5034021;28;20025;-83
2023/06/14 00:53:00;;;;;;;14.27;8.00;;;435.40;2355.20;;;;;;5034056;28;20029;-84
2023/06/14 00:55:27;;;;;;;11.00;7.13;;;435.40;2355.20;;;;;;5033766;28;20448;-83
2023/06/14 00:57:54;;;;;;;14.57;6.88;;;435.40;2355.20;;;;;;5033995;28;20026;-82
2023/06/14 01:00:20;;;;;;;12.38;6.63;;;435.40;2355.20;;;;;;5034964;28;20029;-82
2023/06/14 01:02:46;;;;;;;13.02;7.85;;;435.50;2355.20;;;;;;5035041;28;20035;-86
2023/06/14 01:05:14;;;;;;;13.38;7.68;;;435.50;2355.20;;;;;;5033872;28;20029;-84
2023/06/14 01:07:49;;;;;;;11.27;7.18;;;435.60;2355.20;;;;;;5050428;28;20036;-84
2023/06/14 01:10:26;;;;;;;12.57;7.97;;;435.60;2355.20;;;;;;5034981;28;20026;-84
2023/06/14 01:13:07;;;;;;;12.35;7.78;;;435.50;2355.20;;;;;;5033754;28;20095;-85
2023/06/14 01:15:34;;;;;;;18.75;9.13;;;435.50;2355.20;;;;;;5034660;28;20025;-83
2023/06/14 01:18:02;;;;;;;10.27;7.43;;;435.60;2073.60;;;;;;5033575;28;20488;-82
2023/06/14 01:20:37;;;;;;;13.13;7.85;;;435.60;2355.20;;;;;;5033460;28;20028;-83
2023/06/14 01:23:03;;;;;;;11.48;7.50;;;435.60;2355.20;;;;;;5033237;28;20397;-85
2023/06/14 01:25:29;;;;;;;12.00;8.32;;;435.70;2355.20;;;;;;5034543;28;20026;-83
2023/06/14 01:28:10;;;;;;;11.52;7.70;;;435.70;2355.20;;;;;;5033320;28;20108;-84
2023/06/14 01:30:44;;;;;;;12.82;8.07;;;435.80;2355.20;;;;;;5032184;28;20128;-84
2023/06/14 01:33:14;;;;;;;14.38;8.02;;;435.80;2355.20;;;;;;5049840;28;20037;-84
2023/06/14 01:35:46;;;;;;;11.15;7.90;;;435.70;2355.20;;;;;;5049762;28;20056;-84
2023/06/14 01:38:14;;;;;;;10.75;7.90;;;435.70;2355.20;;;;;;5049979;28;20045;-83
2023/06/14 01:40:42;;;;;;;13.60;8.20;;;435.80;2355.20;;;;;;5049809;28;20030;-83
2023/06/14 01:43:08;;;;;;;11.32;7.93;;;435.70;2355.20;;;;;;5034096;28;20083;-85
2023/06/14 01:45:36;;;;;;;9.90;7.72;;;435.60;2355.20;;;;;;5049711;28;20426;-84
2023/06/14 01:48:03;;;;;;;10.45;7.75;;;435.30;2355.20;;;;;;5032698;28;20026;-84
2023/06/14 01:50:30;;;;;;;11.38;8.02;;;435.30;2355.20;;;;;;5033931;28;20026;-83
2023/06/14 01:52:56;;;;;;;12.32;8.35;;;435.40;2355.20;;;;;;5049685;28;20052;-84
2023/06/14 01:55:22;;;;;;;14.18;8.52;;;435.50;2355.20;;;;;;5034252;28;20445;-85
2023/06/14 01:57:48;;;;;;;12.85;9.80;;;435.60;2355.20;;;;;;5032730;28;20446;-84
2023/06/14 02:00:15;;;;;;;13.88;10.10;;;435.30;2355.20;;;;;;5048700;28;20022;-83
2023/06/14 02:02:41;;;;;;;20.63;9.55;;;435.80;2355.20;;;;;;5032721;28;20033;-86
2023/06/14 02:05:08;;;;;;;14.02;9.52;;;435.30;2355.20;;;;;;5032625;28;20037;-84
2023/06/14 02:07:34;;;;;;;12.13;10.00;;;435.30;2355.20;;;;;;5034050;28;20044;-84
2023/06/14 02:10:00;;;;;;;16.73;11.00;;;435.30;2355.20;;;;;;5033235;28;20032;-84
2023/06/14 02:12:26;;;;;;;17.27;10.70;;;435.40;2355.20;;;;;;5032670;28;20433;-83
2023/06/14 02:14:51;;;;;;;16.08;10.60;;;435.40;2355.20;;;;;;5032825;28;20488;-84
2023/06/14 02:17:17;;;;;;;20.17;10.80;;;435.50;2355.20;;;;;;5033750;28;20493;-85
2023/06/14 02:19:43;;;;;;;12.73;10.40;;;435.50;2355.20;;;;;;5032628;28;20377;-86
2023/06/14 02:22:09;;;;;;;13.20;10.63;;;435.50;2355.20;;;;;;5032614;28;20041;-84
2023/06/14 02:24:35;;;;;;;14.25;10.23;;;435.50;2355.20;;;;;;5032489;28;20040;-84
2023/06/14 02:27:02;;;;;;;14.90;10.13;;;435.80;2176.00;;;;;;5032612;28;20080;-83
2023/06/14 02:29:27;;;;;;;13.77;9.43;;;435.60;2355.20;;;;;;5032555;28;20065;-83
2023/06/14 02:31:53;;;;;;;14.77;9.75;;;435.30;2355.20;;;;;;5033930;28;20061;-85
2023/06/14 02:34:20;;;;;;;14.82;10.27;;;435.30;2278.40;;;;;;5033796;28;20032;-87
2023/06/14 02:36:47;;;;;;;14.63;10.80;;;435.30;2355.20;;;;;;5032448;28;20080;-83
2023/06/14 02:39:13;;;;;;;16.67;9.45;;;435.30;2355.20;;;;;;5032331;28;20034;-83
2023/06/14 02:41:39;;;;;;;13.13;9.00;;;435.40;2355.20;;;;;;5033587;28;20518;-84
2023/06/14 02:44:06;;;;;;;15.20;10.18;;;435.50;2227.20;;;;;;5049258;28;20037;-86
2023/06/14 02:46:32;;;;;;;18.35;10.32;;;435.50;2150.40;;;;;;5032170;28;20084;-86
2023/06/14 02:48:58;;;;;;;15.43;10.07;;;435.50;2099.20;;;;;;5032613;28;20464;-84
2023/06/14 02:51:24;;;;;;;14.93;9.95;;;435.50;2355.20;;;;;;5032564;28;20030;-83
2023/06/14 02:53:50;;;;;;;18.65;10.63;;;435.60;2355.20;;;;;;5048852;28;20412;-85
2023/06/14 02:56:17;;;;;;;12.52;10.15;;;435.60;2355.20;;;;;;5047899;28;20029;-84
2023/06/14 02:58:43;;;;;;;17.25;11.57;;;435.60;2355.20;;;;;;5055203;28;20036;-84
2023/06/14 03:01:12;;;;;;;15.38;10.90;;;435.60;2201.60;;;;;;5055802;28;20025;-85
2023/06/14 03:03:38;;;;;;;16.45;10.98;;;435.60;2355.20;;;;;;5056249;28;20059;-84
2023/06/14 03:06:04;;;;;;;16.92;12.07;;;435.60;2355.20;;;;;;5055555;28;20470;-85
2023/06/14 03:08:38;;;;;;;21.02;12.80;;;435.60;2355.20;;;;;;5055849;28;20064;-84
2023/06/14 03:11:08;;;;;;;16.42;12.30;;;435.60;2355.20;;;;;;5056963;28;20025;-85
2023/06/14 03:13:38;;;;;;;19.10;12.48;;;435.60;2355.20;;;;;;5055969;28;20376;-85
2023/06/14 03:16:04;;;;;;;20.38;13.82;;;435.60;2176.00;;;;;;5055852;28;20079;-83
2023/06/14 03:18:35;;;;;;;19.13;13.38;;;435.70;2355.20;;;;;;5057217;28;20067;-85
2023/06/14 03:21:02;;;;;;;16.90;11.82;;;435.60;2355.20;;;;;;5055626;28;20021;-84
2023/06/14 03:23:28;;;;;;;19.58;12.32;;;435.70;2355.20;;;;;;5056084;28;20029;-85
2023/06/14 03:25:54;;;;;;;19.88;12.95;;;435.80;1971.20;;;;;;5056028;28;20029;-85
2023/06/14 03:28:20;;;;;;;17.17;11.35;;;435.70;2355.20;;;;;;5055499;28;20036;-84
2023/06/14 03:30:46;;;;;;;20.27;12.60;;;435.90;2176.00;;;;;;5056030;28;20409;-84
2023/06/14 03:33:11;;;;;;;20.65;13.25;;;435.60;2355.20;;;;;;5055652;28;20029;-84
2023/06/14 03:35:37;;;;;;;17.25;11.80;;;435.60;2355.20;;;;;;5055447;28;20021;-83
2023/06/14 03:38:03;;;;;;;19.45;11.20;;;435.60;2201.60;;;;;;5055404;28;20052;-84
2023/06/14 03:40:29;;;;;;;15.35;11.55;;;435.60;2355.20;;;;;;5056942;28;20025;-84
2023/06/14 03:42:55;;;;;;;16.83;11.55;;;435.60;2355.20;;;;;;5055463;28;20033;-84
2023/06/14 03:45:21;;;;;;;15.80;12.13;;;435.50;2355.20;;;;;;5046058;28;20064;-85
2023/06/14 03:47:47;;;;;;;16.50;12.57;;;436.10;2355.20;;;;;;5035415;28;20036;-83
2023/06/14 03:50:13;;;;;;;24.27;12.05;;;435.70;2355.20;;;;;;5036281;28;20029;-84
2023/06/14 03:52:42;;;;;;;19.85;12.23;;;435.60;2355.20;;;;;;5035556;28;20026;-84
2023/06/14 03:55:08;;;;;;;14.07;10.40;;;435.60;2355.20;;;;;;5035081;28;20034;-84
2023/06/14 03:57:34;;;;;;;20.80;12.20;;;435.70;2355.20;;;;;;5035090;28;20082;-85
2023/06/14 04:00:00;;;;;;;19.02;11.63;;;435.60;2355.20;;;;;;5035125;28;20112;-84
2023/06/14 04:02:28;;;;;;;23.58;12.63;;;435.60;2355.20;;;;;;5035934;28;20462;-84
2023/06/14 04:04:55;;;;;;;22.17;12.80;;;435.50;2355.20;;;;;;5035149;28;20032;-84
2023/06/14 04:07:20;;;;;;;19.77;12.23;;;435.60;2355.20;;;;;;5035099;28;20036;-84
2023/06/14 04:09:46;;;;;;;20.08;12.07;;;435.70;2355.20;;;;;;5034086;28;20026;-85
2023/06/14 04:12:12;;;;;;;20.05;12.48;;;435.70;2355.20;;;;;;5034539;28;20030;-83
2023/06/14 04:14:39;;;;;;;19.80;11.68;;;435.60;2355.20;;;;;;5035322;28;20117;-83
2023/06/14 04:17:05;;;;;;;14.65;11.27;;;435.50;2355.20;;;;;;5034568;28;20040;-84
2023/06/14 04:19:31;;;;;;;20.13;13.00;;;435.50;2355.20;;;;;;5035940;28;20096;-84
2023/06/14 04:22:02;;;;;;;18.30;13.40;;;435.60;2355.20;;;;;;5051858;28;20040;-82
2023/06/14 04:24:34;;;;;;;22.35;13.45;;;435.60;2355.20;;;;;;5038267;28;20029;-83
2023/06/14 04:27:01;;;;;;;17.73;11.70;;;435.70;2355.20;;;;;;5034521;28;20473;-84
2023/06/14 04:29:29;;;;;;;21.25;12.18;;;435.80;2355.20;;;;;;5035269;28;20461;-83
2023/06/14 04:31:58;;;;;;;23.27;12.95;;;435.40;2355.20;;;;;;5034528;28;20128;-83
2023/06/14 04:34:29;;;;;;;26.00;12.85;;;435.80;2355.20;;;;;;5034677;28;20029;-83
2023/06/14 04:36:59;;;;;;;20.60;11.30;;;435.70;2355.20;;;;;;5035654;28;20030;-83
2023/06/14 04:39:25;;;;;;;17.88;11.75;;;435.80;2355.20;;;;;;5034312;28;20041;-84
2023/06/14 04:41:52;;;;;;;25.52;11.88;;;435.90;2355.20;;;;;;5034164;28;20030;-84
2023/06/14 04:44:19;;;;;;;21.20;12.48;;;435.80;2355.20;;;;;;5034018;28;20025;-85
2023/06/14 04:46:48;;;;;;;17.75;11.93;;;435.90;2355.20;;;;;;5034168;28;20030;-84
2023/06/14 04:49:18;;;;;;;26.08;16.95;;;435.90;2355.20;;;;;;5050756;28;20026;-83
2023/06/14 04:51:45;;;;;;;20.63;13.45;;;435.80;2355.20;;;;;;5033777;28;20029;-82
2023/06/14 04:54:14;;;;;;;21.40;12.43;;;435.80;2355.20;;;;;;5034200;28;20481;-83
2023/06/14 04:56:43;;;;;;;20.15;12.88;;;435.80;2355.20;;;;;;5033963;28;20385;-82
2023/06/14 04:59:11;;;;;;;20.40;12.27;;;435.90;2355.20;;;;;;5034315;28;20029;-82
2023/06/14 05:01:37;;;;;;;17.83;11.90;;;435.90;2355.20;;;;;;5051889;28;20029;-85
2023/06/14 05:04:04;;;;;;;20.10;12.88;;;436.10;2355.20;;;;;;5053887;28;20047;-82
2023/06/14 05:06:30;;;;;;;19.85;12.40;;;436.10;2355.20;;;;;;5053173;28;20140;-85
2023/06/14 05:08:56;;;;;;;18.00;12.75;;;436.10;2355.20;;;;;;5053381;28;20373;-84
2023/06/14 05:11:26;;;;;;;21.52;11.82;;;460.80;2380.80;;;;;;5054501;28;20025;-85
2023/06/14 05:13:52;;;;;;;14.23;11.73;;;460.80;2380.80;;;;;;5053592;28;20024;-84
2023/06/14 05:16:19;;;;;;;19.25;13.27;;;460.80;2380.80;;;;;;5053231;28;20035;-85
2023/06/14 05:18:47;;;;;;;21.95;14.15;;;460.80;2201.60;;;;;;5054709;28;20096;-85
2023/06/14 05:21:13;;;;;;;18.83;14.07;;;460.80;2304.00;;;;;;5052349;28;20036;-84
2023/06/14 05:23:38;;;;;;;21.42;13.88;;;460.80;2380.80;;;;;;5053331;28;20033;-84
2023/06/14 05:26:06;;;;;;;14.80;12.07;;;460.80;2380.80;;;;;;5055198;28;20354;-82
2023/06/14 05:28:32;;;;;;;25.35;13.82;;;460.90;1996.80;;;;;;5057547;28;20025;-83
2023/06/14 05:30:58;;;;;;;15.75;12.52;;;461.10;2380.80;;;;;;5056834;28;20025;-84
2023/06/14 05:33:24;;;;;;;16.70;13.75;;;461.10;2380.80;;;;;;5056695;28;20021;-86
2023/06/14 05:35:49;;;;;;;18.13;14.43;;;461.10;2380.80;;;;;;5056577;28;20029;-84
2023/06/14 05:38:15;;;;;;;23.42;15.25;;;461.20;2380.80;;;;;;5056722;28;20098;-84
2023/06/14 05:40:41;;;;;;;20.90;14.57;;;461.30;2380.80;;;;;;5054480;28;20492;-84
2023/06/14 05:43:07;;;;;;;19.77;15.13;;;461.30;2380.80;;;;;;5053272;28;20039;-84
2023/06/14 05:45:33;;;;;;;17.25;14.05;;;461.20;2380.80;;;;;;5053241;28;20120;-85
2023/06/14 05:47:58;;;;;;;21.92;15.18;;;461.30;2380.80;;;;;;5054027;28;20374;-85
2023/06/14 05:50:24;;;;;;;18.00;14.18;;;461.40;2380.80;;;;;;5053051;28;20108;-85
2023/06/14 05:52:51;;;;;;;19.67;14.63;;;461.50;2380.80;;;;;;5054139;28;20037;-84
2023/06/14 05:55:17;;;;;;;15.77;13.27;;;461.60;2380.80;;;;;;5053813;28;20028;-85
2023/06/14 05:57:43;;;;;;;19.10;15.10;;;461.70;2380.80;;;;;;5052975;28;20110;-85
2023/06/14 06:00:11;;;;;;;20.88;14.85;;;461.70;2380.80;;;;;;5052703;28;20067;-84
2023/06/14 06:02:37;;;;;;;24.73;13.95;;;486.40;2380.80;;;;;;5053969;28;20068;-86
2023/06/14 06:05:03;;;;;;;23.27;14.07;;;486.50;2380.80;;;;;;5052694;28;20067;-84
2023/06/14 06:07:28;;;;;;;19.63;13.20;;;486.70;2380.80;;;;;;5052513;28;20029;-86
2023/06/14 06:09:54;;;;;;;16.80;11.73;;;486.70;2380.80;;;;;;5052620;28;20028;-84
2023/06/14 06:12:20;;;;;;;18.13;12.65;;;486.80;2380.80;;;;;;5052841;28;20033;-84
2023/06/14 06:14:46;;;;;;;14.38;11.70;;;487.00;2380.80;;;;;;5052814;28;20061;-85
2023/06/14 06:17:11;;;;;;;14.65;10.27;;;487.10;2380.80;;;;;;5052432;28;20479;-83
2023/06/14 06:19:37;;;;;;;12.20;9.63;;;487.20;2380.80;;;;;;5052669;28;20074;-84
2023/06/14 06:22:06;;;;;;;14.77;10.73;;;487.20;2380.80;;;;;;5069280;28;20033;-82
2023/06/14 06:24:32;;;;;;;12.02;9.90;;;487.00;2380.80;;;;;;5052435;28;20064;-84
2023/06/14 06:26:57;;;;;;;12.88;7.47;;;487.20;2380.80;;;;;;5069044;28;20025;-83
2023/06/14 06:29:23;;;;;;;8.45;7.53;;;487.30;2380.80;;;;;;5069381;28;20032;-83
2023/06/14 06:31:49;;;;;;;9.23;7.72;;;512.00;2380.80;;;;;;5069172;28;20120;-82
2023/06/14 06:34:15;;;;;;;12.23;7.90;;;487.30;2380.80;;;;;;5057724;28;20028;-83
2023/06/14 06:36:42;;;;;;;13.30;10.32;;;512.00;2380.80;;;;;;5073358;28;20025;-84
2023/06/14 06:39:10;;;;;;;10.05;7.25;;;512.00;2380.80;;;;;;5056516;28;20115;-84
2023/06/14 06:41:39;;;;;;;9.50;7.05;;;512.20;2380.80;;;;;;5073117;28;20552;-83
2023/06/14 06:44:10;;;;;;;7.05;6.07;;;512.40;2380.80;;;;;;5072865;28;20028;-84
2023/06/14 06:46:40;;;;;;;6.95;5.88;;;512.70;2380.80;;;;;;5073219;28;20463;-85
2023/06/14 06:49:11;;;;;;;8.32;5.88;;;512.80;2380.80;;;;;;5072980;28;20024;-85
2023/06/14 06:51:41;;;;;;;6.32;5.32;;;512.80;2380.80;;;;;;5072830;28;20078;-83
2023/06/14 06:54:08;;;;;;;8.18;5.78;;;512.90;2380.80;;;;;;5073056;28;20071;-83
2023/06/14 06:56:34;;;;;;;11.07;6.38;;;537.60;2406.40;;;;;;5054506;28;20110;-80
2023/06/14 06:59:00;;;;;;;7.35;5.47;;;537.80;2406.40;;;;;;5035350;28;20037;-83
2023/06/14 07:01:26;;;;;;;7.15;4.80;;;537.90;2406.40;;;;;;5052865;28;20393;-80
2023/06/14 07:03:52;;;;;;;7.30;5.03;;;537.90;2406.40;;;;;;5037354;28;20462;-82
2023/06/14 07:06:18;;;;;;;6.28;5.22;;;537.70;2406.40;;;;;;5052052;28;20103;-82
2023/06/14 07:08:45;;;;;;;6.53;4.72;;;537.70;2406.40;;;;;;5052565;28;20025;-79
2023/06/14 07:11:11;;;;;;;5.75;4.10;;;537.90;2406.40;;;;;;5052253;28;20060;-79
2023/06/14 07:13:36;;;;;;;6.88;3.88;;;538.00;2406.40;;;;;;5052219;28;20068;-79
2023/06/14 07:16:04;;;;;;;5.28;3.70;;;538.20;2406.40;;;;;;5052017;28;20044;-81
2023/06/14 07:18:30;;;;;;;7.53;5.68;;;538.30;2406.40;;;;;;5052328;28;20087;-80
2023/06/14 07:20:56;;;;;;;6.18;4.30;;;538.50;2406.40;;;;;;5036917;28;20022;-80
2023/06/14 07:23:23;;;;;;;5.45;4.10;;;538.50;2406.40;;;;;;5036615;28;20037;-78
2023/06/14 07:25:49;;;;;;;6.85;4.82;;;538.10;2406.40;;;;;;5036402;28;20547;-80
2023/06/14 07:28:16;;;;;;;12.45;4.82;;;538.20;2406.40;;;;;;5058157;28;20029;-83
2023/06/14 07:30:42;;;;;;;8.32;4.72;;;538.40;2406.40;;;;;;5055519;28;20083;-77
2023/06/14 07:33:08;;;;;;;7.35;4.38;;;563.30;2432.00;;;;;;5056292;28;20029;-80
2023/06/14 07:35:34;;;;;;;5.22;3.85;;;563.40;2432.00;;;;;;5055286;28;20443;-80
2023/06/14 07:38:00;;;;;;;5.28;3.88;;;563.30;2432.00;;;;;;5054889;28;20047;-80
2023/06/14 07:40:26;;;;;;;11.77;4.65;;;563.40;2432.00;;;;;;5055035;28;20460;-83
2023/06/14 07:42:54;;;;;;;6.60;4.50;;;563.70;2432.00;;;;;;5055051;28;20051;-77
2023/06/14 07:45:19;;;;;;;5.45;4.10;;;563.70;2432.00;;;;;;5053819;28;20029;-76
2023/06/14 07:47:45;;;;;;;6.72;4.28;;;563.90;2432.00;;;;;;5054411;28;20376;-78
2023/06/14 07:50:12;;;;;;;7.35;4.45;;;563.90;2432.00;;;;;;5054673;28;20025;-76
2023/06/14 07:52:38;;;;;;;7.10;5.28;;;588.80;2432.00;;;;;;5054606;28;20033;-78
2023/06/14 07:55:05;;;;;;;7.82;5.15;;;588.90;2432.00;;;;;;5055960;28;20453;-76
2023/06/14 07:57:31;;;;;;;7.60;5.35;;;589.10;2432.00;;;;;;5055784;28;20029;-76
2023/06/14 07:59:56;;;;;;;8.80;6.53;;;589.30;2432.00;;;;;;5049555;28;20045;-79
2023/06/14 08:02:22;;;;;;;7.13;4.80;;;589.10;2432.00;;;;;;5035344;28;20065;-77
2023/06/14 08:04:48;;;;;;;9.52;6.18;;;588.80;2432.00;;;;;;5054149;28;20025;-75
2023/06/14 08:07:14;;;;;;;6.80;5.13;;;564.10;2432.00;;;;;;5055064;28;20098;-76
2023/06/14 08:09:41;;;;;;;9.75;4.72;;;588.80;2432.00;;;;;;5053878;28;20021;-77
2023/06/14 08:12:09;;;;;;;6.13;3.80;;;589.30;2432.00;;;;;;5053826;28;20032;-76
2023/06/14 08:14:35;;;;;;;6.20;4.05;;;589.30;2432.00;;;;;;5053466;28;20423;-77
2023/06/14 08:17:01;;;;;;;5.18;4.20;;;589.30;2432.00;;;;;;5053866;28;20036;-78
2023/06/14 08:19:27;;;;;;;5.28;3.92;;;589.40;2432.00;;;;;;5053815;28;20581;-78
2023/06/14 08:21:54;;;;;;;6.70;4.25;;;589.30;2432.00;;;;;;5053240;28;20044;-77
2023/06/14 08:24:24;;;;;;;6.75;4.22;;;589.00;2432.00;;;;;;5053650;28;20082;-76
2023/06/14 08:26:50;;;;;;;6.72;5.30;;;589.00;2432.00;;;;;;5054526;28;20029;-76
2023/06/14 08:29:16;;;;;;;7.15;4.28;;;589.40;2432.00;;;;;;5053318;28;20021;-78
2023/06/14 08:31:42;;;;;;;6.43;4.00;;;589.50;2432.00;;;;;;5050321;28;20029;-78
2023/06/14 08:34:08;;;;;;;5.25;3.67;;;589.30;2432.00;;;;;;5057056;28;20021;-78
2023/06/14 08:36:35;;;;;;;6.93;4.63;;;588.90;2432.00;;;;;;5069209;28;20025;-79
2023/06/14 08:39:01;;;;;;;5.18;3.70;;;588.80;2432.00;;;;;;5033856;28;20022;-77
2023/06/14 08:41:29;;;;;;;5.90;4.35;;;589.00;2432.00;;;;;;5033673;28;20037;-78
2023/06/14 08:43:55;;;;;;;6.32;4.43;;;589.00;2432.00;;;;;;5034990;28;20101;-77
2023/06/14 08:46:23;;;;;;;7.88;4.10;;;589.20;2432.00;;;;;;5045499;28;20029;-77
2023/06/14 08:48:56;;;;;;;5.00;3.78;;;589.60;2432.00;;;;;;5052873;28;20028;-78
2023/06/14 08:51:26;;;;;;;9.27;4.43;;;614.40;2432.00;;;;;;5054375;28;20025;-78
2023/06/14 08:53:58;;;;;;;6.45;4.93;;;614.60;2432.00;;;;;;5053131;28;20116;-79
2023/06/14 08:56:29;;;;;;;7.20;4.90;;;614.60;2432.00;;;;;;5054142;28;20067;-78
2023/06/14 08:58:56;;;;;;;6.97;4.72;;;614.60;2432.00;;;;;;5053241;28;20033;-77
2023/06/14 09:01:23;;;;;;;5.20;4.18;;;614.60;2432.00;;;;;;5053155;28;20056;-79
2023/06/14 09:03:51;;;;;;;5.35;4.28;;;614.50;2432.00;;;;;;5052628;28;20027;-77
2023/06/14 09:06:18;;;;;;;6.40;5.10;;;614.40;2432.00;;;;;;5052910;28;20393;-77
2023/06/14 09:08:46;;;;;;;7.93;5.22;;;614.50;2432.00;;;;;;5053094;28;20422;-77
2023/06/14 09:11:18;;;;;;;8.27;5.35;;;614.80;2432.00;;;;;;5052695;28;20453;-78
2023/06/14 09:13:44;;;;;;;7.07;5.65;;;614.80;2432.00;;;;;;5054629;28;20028;-78
2023/06/14 09:16:11;;;;;;;8.30;3.80;;;;;;;;;;5052435;28;20033;-76
2023/06/14 09:18:38;;;;;;;7.13;4.32;;;;;;;;;;5051961;28;20112;-77
2023/06/14 09:21:07;;;;;;;6.25;4.03;;;615.10;2432.00;;;;;;5052418;28;20084;-77
2023/06/14 09:23:38;;;;;;;5.95;4.03;;;615.20;2432.00;;;;;;5052795;28;20033;-79
2023/06/14 09:26:15;;;;;;;6.95;4.00;;;615.10;2432.00;;;;;;5052313;28;20032;-79
2023/06/14 09:28:44;;;;;;;6.28;3.90;;;614.90;2432.00;;;;;;5051479;28;20106;-80
2023/06/14 09:31:12;;;;;;;10.32;6.30;;;614.90;2432.00;;;;;;5052625;28;20017;-76
2023/06/14 09:33:37;;;;;;;8.80;5.07;;;614.90;2432.00;;;;;;5052139;28;20025;-75
2023/06/14 09:36:09;;;;;;;6.45;5.35;;;614.90;2432.00;;;;;;5052472;28;20048;-77
2023/06/14 09:38:35;;;;;;;7.70;5.07;;;615.00;2432.00;;;;;;5052102;28;20598;-78
2023/06/14 09:41:04;;;;;;;10.30;5.38;;;615.00;2432.00;;;;;;5052450;28;20033;-77
2023/06/14 09:43:33;;;;;;;10.02;7.47;;;615.10;2432.00;;;;;;5052157;28;20430;-77
2023/06/14 09:46:01;;;;;;;4.75;3.80;;;615.10;2432.00;;;;;;5053369;28;20063;-80
2023/06/14 09:48:26;;;;;;;8.57;5.95;;;615.10;2432.00;;;;;;5051582;28;20028;-77
2023/06/14 09:50:58;;;;;;;14.23;5.43;;;615.10;2432.00;;;;;;5052243;28;20075;-77
2023/06/14 09:53:25;;;;;;;10.65;7.72;;;615.20;2432.00;;;;;;5052007;28;20039;-79
2023/06/14 09:55:54;;;;;;;7.45;5.75;;;615.30;2432.00;;;;;;5052333;28;20025;-76
2023/06/14 09:58:22;;;;;;;11.82;8.35;;;615.30;2432.00;;;;;;5051882;28;20081;-76
2023/06/14 10:00:51;;;;;;;10.00;8.88;;;640.20;2432.00;;;;;;5051670;28;20021;-78
2023/06/14 10:03:25;;;;;;;10.07;8.88;;;640.40;2432.00;;;;;;5051989;28;20025;-79
2023/06/14 10:05:52;;;;;;;9.63;7.13;;;640.60;2432.00;;;;;;5052141;28;20045;-81
2023/06/14 10:08:30;;;;;;;16.88;12.90;;;640.60;2432.00;;;;;;5050881;28;20056;-79
2023/06/14 10:10:56;;;;;;;6.88;5.07;;;640.50;2432.00;;;;;;5052958;28;20396;-79
2023/06/14 10:13:23;;;;;;;15.98;13.63;;;640.20;2432.00;;;;;;5052789;28;20051;-77
2023/06/14 10:16:17;;;;;;;8.82;7.93;;;640.20;2432.00;;;;;;5051849;28;20032;-78
2023/06/14 10:18:53;;;;;;;12.73;4.68;;;640.10;2432.00;;;;;;5040500;28;20115;-82
2023/06/14 10:21:40;;;;;;;7.07;6.18;;;640.00;2432.00;;;;;;5052770;28;20025;-77
2023/06/14 10:24:10;;;;;;;7.93;5.07;;;640.00;2432.00;;;;;;5053172;28;20025;-77
2023/06/14 10:26:57;;;;;;;8.40;5.05;;;615.30;2432.00;;;;;;5051911;28;20029;-76
2023/06/14 10:29:23;;;;;;;14.13;12.15;;;640.00;2432.00;;;;;;5051634;28;20025;-78
2023/06/14 10:31:50;;;;;;;12.43;8.63;;;640.10;2432.00;;;;;;5053270;28;20090;-76
2023/06/14 10:34:31;;;;;;;31.95;22.98;;;640.20;2432.00;;;;;;5051597;28;20082;-77
2023/06/14 10:37:11;;;;;;;16.48;11.98;;;640.70;2432.00;;;;;;5053270;28;20461;-77
2023/06/14 10:39:41;;;;;;;6.45;5.45;;;665.60;2432.00;;;;;;5051906;28;20067;-80
2023/06/14 10:42:07;;;;;;;6.70;5.10;;;666.00;2432.00;;;;;;5049619;28;20033;-76
2023/06/14 10:44:34;;;;;;;5.18;4.40;;;;;;;;;;5034304;28;20036;-78
2023/06/14 10:47:01;;;;;;;5.68;4.00;;;691.20;2432.00;;;;;;5052202;28;20495;-78
2023/06/14 10:49:48;;;;;;;5.53;3.97;;;691.20;2432.00;;;;;;5052248;28;20104;-77
2023/06/14 10:52:20;;;;;;;5.43;3.70;;;691.30;2432.00;;;;;;5050895;28;20432;-79
2023/06/14 10:55:05;;;;;;;5.90;3.60;;;666.50;2432.00;;;;;;5051299;28;20368;-79
2023/06/14 10:57:35;;;;;;;7.78;4.80;;;666.30;2432.00;;;;;;5050535;28;20029;-78
2023/06/14 11:00:11;;;;;;;6.10;4.72;;;691.40;2432.00;;;;;;5051110;28;20053;-79
2023/06/14 11:03:05;;;;;;;8.13;5.95;;;691.70;2432.00;;;;;;5051570;28;20029;-78
2023/06/14 11:05:41;;;;;;;7.55;4.88;;;691.70;2432.00;;;;;;5051240;28;20058;-79
2023/06/14 11:08:26;;;;;;;7.55;5.22;;;691.70;2432.00;;;;;;5051850;28;20071;-78
2023/06/14 11:10:58;;;;;;;4.57;3.53;;;691.40;2432.00;;;;;;5037427;28;20354;-78
2023/06/14 11:13:25;;;;;;;7.97;6.50;;;691.20;2432.00;;;;;;5031736;28;20458;-78
2023/06/14 11:15:57;;;;;;;7.65;4.63;;;666.50;2432.00;;;;;;5032610;28;20105;-79
2023/06/14 11:18:27;;;;;;;11.60;8.32;;;666.20;2432.00;;;;;;5032768;28;20025;-79
2023/06/14 11:20:53;;;;;;;10.10;6.57;;;666.10;2432.00;;;;;;5034033;28;20185;-81
2023/06/14 11:23:21;;;;;;;9.80;5.47;;;666.00;2432.00;;;;;;5034751;28;20056;-81
2023/06/14 11:25:53;;;;;;;8.70;5.63;;;665.90;2432.00;;;;;;5035209;28;20536;-82
2023/06/14 11:28:23;;;;;;;;;;;665.60;2432.00;;;;;;5036691;28;20052;-79
2023/06/14 11:30:59;;;;;;;11.88;7.28;;;665.60;2432.00;;;;;;5035275;28;19932;-80
2023/06/14 11:33:25;;;;;;;8.05;6.28;;;666.10;2432.00;;;;;;5035171;28;20036;-80
2023/06/14 11:35:52;;;;;;;8.43;5.53;;;666.30;2432.00;;;;;;5035141;28;20025;-78
2023/06/14 11:38:18;;;;;;;8.27;5.20;;;666.50;2432.00;;;;;;5034785;28;20032;-77
2023/06/14 11:40:43;;;;;;;9.57;5.13;;;666.50;2432.00;;;;;;5041128;28;20389;-76
2023/06/14 11:43:09;;;;;;;7.30;5.22;;;666.30;2432.00;;;;;;5053942;28;20125;-77
2023/06/14 11:45:35;;;;;;;5.90;4.25;;;666.30;2432.00;;;;;;5054449;28;20091;-76
2023/06/14 11:48:01;;;;;;;8.20;4.82;;;666.30;2432.00;;;;;;5055951;28;20031;-77
2023/06/14 11:50:28;;;;;;;5.82;4.57;;;666.30;2432.00;;;;;;5054686;28;20078;-77
2023/06/14 11:52:59;;;;;;;5.68;4.57;;;666.10;2432.00;;;;;;5055646;28;20098;-76
2023/06/14 11:55:26;;;;;;;4.18;3.15;;;666.00;2432.00;;;;;;5054713;28;20029;-77
2023/06/14 11:57:54;;;;;;;7.57;3.63;;;665.80;2432.00;;;;;;5054665;28;20043;-76
2023/06/14 12:00:25;;;;;;;6.70;4.35;;;665.70;2432.00;;;;;;5055588;28;20025;-76
2023/06/14 12:02:55;;;;;;;7.25;5.90;;;665.70;2432.00;;;;;;5054629;28;20055;-77
2023/06/14 12:05:22;;;;;;;5.32;3.78;;;665.70;2432.00;;;;;;5053927;28;20060;-78
2023/06/14 12:07:48;;;;;;;7.47;4.35;;;665.90;2432.00;;;;;;5054611;28;20025;-76
2023/06/14 12:10:14;;;;;;;7.00;4.72;;;666.00;2432.00;;;;;;5054081;28;20385;-75
2023/06/14 12:12:41;;;;;;;5.05;3.75;;;666.10;2432.00;;;;;;5054084;28;20029;-79
2023/06/14 12:15:09;;;;;;;7.47;3.80;;;665.90;2432.00;;;;;;5054345;28;20021;-79